Time;durP1;ratioP1;P1;durP2;ratioP2;P2;SDS_P1;SDS_P2;PMS_P1;PMS_P2;Temp;Humidity;BMP_temperature;BMP_pressure;BME280_temperature;BME280_humidity;BME280_pressure;Samples;Min_cycle;Max_cycle;Signal;HPM_P1;HPM_P2
2022/07/15 00:00:10;;;;;;;3.22;2.67;;;21.10;66.60;;;;;;5106172;28;20028;-58
2022/07/15 00:02:37;;;;;;;2.58;2.35;;;21.10;66.60;;;;;;5111991;27;20024;-58
2022/07/15 00:05:03;;;;;;;2.35;2.22;;;21.10;66.70;;;;;;5109408;28;20451;-58
2022/07/15 00:07:29;;;;;;;2.33;2.13;;;21.10;66.80;;;;;;5108022;28;20023;-58
2022/07/15 00:12:40;;;;;;;3.20;2.63;;;21.00;66.90;;;;;;5105856;27;20410;-58
2022/07/15 00:15:07;;;;;;;2.10;2.00;;;21.00;67.00;;;;;;5113315;27;20154;-58
2022/07/15 00:17:33;;;;;;;2.88;2.53;;;20.90;67.00;;;;;;5107976;27;20034;-58
2022/07/15 00:19:59;;;;;;;2.53;2.30;;;21.00;67.00;;;;;;5111109;28;20034;-58
2022/07/15 00:22:25;;;;;;;2.92;2.40;;;21.00;67.20;;;;;;5106871;28;20020;-58
2022/07/15 00:24:51;;;;;;;3.05;2.50;;;20.90;67.30;;;;;;5102939;28;20094;-58
2022/07/15 00:27:16;;;;;;;2.30;2.10;;;20.90;67.30;;;;;;5103232;28;20035;-58
2022/07/15 00:29:42;;;;;;;2.97;2.47;;;20.90;67.40;;;;;;5110991;27;20160;-58
2022/07/15 00:32:08;;;;;;;2.50;2.30;;;20.90;67.40;;;;;;5108027;28;20493;-58
2022/07/15 00:34:33;;;;;;;2.70;2.50;;;20.90;67.50;;;;;;5104091;28;20020;-58
2022/07/15 00:36:59;;;;;;;2.30;2.10;;;20.80;67.50;;;;;;5115101;28;20031;-58
2022/07/15 00:39:25;;;;;;;2.60;2.40;;;20.80;67.60;;;;;;5113399;28;20031;-58
2022/07/15 00:41:51;;;;;;;2.65;2.45;;;20.80;67.70;;;;;;5111281;28;20500;-58
2022/07/15 00:44:17;;;;;;;4.32;2.72;;;20.80;67.80;;;;;;5111697;27;20028;-58
2022/07/15 00:46:43;;;;;;;3.05;2.75;;;20.80;67.90;;;;;;5108034;28;20055;-58
2022/07/15 00:49:10;;;;;;;2.95;2.55;;;20.80;67.90;;;;;;5111174;28;20027;-58
2022/07/15 00:51:47;;;;;;;3.88;2.70;;;20.80;68.00;;;;;;5110221;28;20016;-58
2022/07/15 00:54:15;;;;;;;2.50;2.30;;;20.90;68.10;;;;;;5112818;28;20035;-58
2022/07/15 00:56:50;;;;;;;3.63;2.58;;;20.90;68.00;;;;;;5110424;28;20095;-58
2022/07/15 00:59:17;;;;;;;2.50;2.30;;;20.90;68.20;;;;;;5116155;27;20165;-58
2022/07/15 01:01:44;;;;;;;2.55;2.30;;;20.90;68.20;;;;;;5112010;28;20031;-58
2022/07/15 01:04:12;;;;;;;3.22;2.40;;;20.90;68.20;;;;;;5108595;28;20031;-58
2022/07/15 01:06:39;;;;;;;2.63;2.22;;;20.90;68.30;;;;;;5110406;28;20065;-58
2022/07/15 01:09:05;;;;;;;3.00;2.70;;;20.90;68.30;;;;;;5106501;27;20023;-58
2022/07/15 01:11:31;;;;;;;3.22;2.60;;;20.90;68.30;;;;;;5113185;28;20035;-58
2022/07/15 01:13:58;;;;;;;3.38;2.88;;;20.90;68.30;;;;;;5107017;28;20051;-58
2022/07/15 01:16:24;;;;;;;3.42;2.90;;;21.00;68.40;;;;;;5110213;27;20049;-58
2022/07/15 01:18:50;;;;;;;2.63;2.42;;;21.00;68.30;;;;;;5108230;28;20039;-59
2022/07/15 01:21:16;;;;;;;3.05;2.50;;;20.90;68.30;;;;;;5106886;27;20463;-58
2022/07/15 01:23:42;;;;;;;3.72;3.10;;;20.90;68.40;;;;;;5108408;28;20058;-58
2022/07/15 01:26:12;;;;;;;4.80;2.97;;;20.90;68.30;;;;;;5100940;28;20412;-58
2022/07/15 01:28:38;;;;;;;3.63;2.73;;;20.80;68.20;;;;;;5104675;27;20104;-58
2022/07/15 01:31:05;;;;;;;5.88;3.42;;;20.80;68.60;;;;;;5107022;28;20080;-58
2022/07/15 01:33:32;;;;;;;3.10;2.75;;;20.80;68.60;;;;;;5110215;28;20031;-58
2022/07/15 01:35:58;;;;;;;3.42;3.08;;;20.70;68.60;;;;;;5103666;28;20134;-58
2022/07/15 01:38:25;;;;;;;3.60;3.05;;;20.70;68.70;;;;;;5110982;28;20503;-58
2022/07/15 01:40:51;;;;;;;3.90;3.30;;;20.70;69.50;;;;;;5113753;28;20036;-58
2022/07/15 01:43:16;;;;;;;3.28;2.97;;;20.60;68.90;;;;;;5118622;28;20022;-58
2022/07/15 01:45:43;;;;;;;3.90;3.10;;;20.60;69.00;;;;;;5112124;28;20016;-58
2022/07/15 01:49:21;;;;;;;3.72;3.13;;;20.60;69.10;;;;;;5109770;28;20035;-58
2022/07/15 01:51:00;;;;;;;3.00;2.40;;;20.50;69.20;;;;;;5112809;28;20048;-58
2022/07/15 01:53:28;;;;;;;3.00;2.70;;;20.50;69.30;;;;;;5115750;28;20020;-58
2022/07/15 01:55:54;;;;;;;4.30;3.22;;;20.50;69.40;;;;;;5115923;28;20260;-58
2022/07/15 01:58:20;;;;;;;3.65;2.97;;;20.50;69.50;;;;;;5110708;28;20031;-58
2022/07/15 02:00:46;;;;;;;3.13;2.83;;;20.50;69.60;;;;;;5117947;28;20087;-58
2022/07/15 02:03:12;;;;;;;4.05;2.75;;;20.50;69.80;;;;;;5114224;28;20522;-58
2022/07/15 02:05:38;;;;;;;3.08;2.65;;;20.50;69.80;;;;;;5104680;28;20069;-58
2022/07/15 02:08:05;;;;;;;3.20;2.90;;;20.50;69.80;;;;;;5109308;28;20058;-58
2022/07/15 02:10:40;;;;;;;3.95;3.50;;;20.50;69.80;;;;;;5128589;27;20030;-58
2022/07/15 02:13:13;;;;;;;5.07;3.08;;;20.50;69.80;;;;;;5115105;28;20099;-58
2022/07/15 02:15:40;;;;;;;3.58;3.13;;;20.60;69.80;;;;;;5129545;27;20035;-58
2022/07/15 02:18:06;;;;;;;3.28;2.60;;;20.60;69.90;;;;;;5118383;28;20114;-58
2022/07/15 02:20:33;;;;;;;3.63;2.83;;;20.70;69.90;;;;;;5112432;28;20028;-58
2022/07/15 02:23:01;;;;;;;2.70;2.50;;;20.60;69.80;;;;;;5105897;28;20387;-58
2022/07/15 02:25:28;;;;;;;3.47;3.17;;;20.70;69.80;;;;;;5120429;28;20024;-58
2022/07/15 02:27:59;;;;;;;2.60;2.40;;;20.70;69.70;;;;;;5117270;28;20016;-58
2022/07/15 02:30:26;;;;;;;2.97;2.67;;;20.80;69.80;;;;;;5118643;28;20584;-58
2022/07/15 02:32:52;;;;;;;2.90;2.60;;;20.80;69.70;;;;;;5105588;27;20028;-58
2022/07/15 02:35:17;;;;;;;3.03;2.72;;;20.90;69.90;;;;;;5117285;27;20039;-58
2022/07/15 02:37:44;;;;;;;3.28;2.72;;;20.90;69.90;;;;;;5117217;27;20110;-58
2022/07/15 02:40:10;;;;;;;3.00;2.67;;;20.90;69.80;;;;;;5113696;27;20020;-58
2022/07/15 02:42:36;;;;;;;3.38;2.75;;;21.00;69.70;;;;;;5117455;28;20383;-58
2022/07/15 02:45:02;;;;;;;3.42;3.13;;;21.00;69.60;;;;;;5117818;28;20024;-58
2022/07/15 02:47:28;;;;;;;3.08;2.67;;;21.00;69.50;;;;;;5104337;28;20031;-58
2022/07/15 02:49:55;;;;;;;3.05;2.75;;;21.00;69.50;;;;;;5105739;27;20047;-58
2022/07/15 02:52:20;;;;;;;3.35;2.97;;;21.00;69.50;;;;;;5114659;28;20566;-58
2022/07/15 02:54:46;;;;;;;4.10;3.70;;;21.10;69.50;;;;;;5115799;27;20097;-57
2022/07/15 02:57:12;;;;;;;2.97;2.78;;;21.10;69.50;;;;;;5110467;28;20032;-58
2022/07/15 02:59:37;;;;;;;3.05;2.75;;;21.10;69.50;;;;;;5114374;28;20102;-58
2022/07/15 03:02:03;;;;;;;4.13;3.50;;;21.20;69.40;;;;;;5106739;28;20019;-58
2022/07/15 03:04:29;;;;;;;4.50;3.50;;;21.20;69.40;;;;;;5113263;28;20027;-58
2022/07/15 03:06:55;;;;;;;3.95;3.22;;;21.20;69.40;;;;;;5114191;27;20143;-58
2022/07/15 03:09:20;;;;;;;3.63;3.20;;;21.20;69.20;;;;;;5109474;28;20055;-58
2022/07/15 03:11:46;;;;;;;3.83;3.42;;;21.30;69.50;;;;;;5112812;28;20110;-58
2022/07/15 03:14:12;;;;;;;3.85;3.45;;;21.30;69.50;;;;;;5111821;28;20031;-58
2022/07/15 03:16:37;;;;;;;3.80;3.20;;;21.40;69.30;;;;;;5112105;27;20108;-58
2022/07/15 03:19:03;;;;;;;5.28;3.72;;;21.50;69.20;;;;;;5107012;27;20027;-58
2022/07/15 03:21:28;;;;;;;3.95;3.20;;;21.60;69.10;;;;;;5108076;28;20020;-58
2022/07/15 03:23:54;;;;;;;3.58;3.00;;;21.60;69.00;;;;;;5112546;27;20129;-58
2022/07/15 03:26:20;;;;;;;3.75;3.30;;;21.70;69.10;;;;;;5115621;28;20061;-58
2022/07/15 03:28:46;;;;;;;3.88;3.17;;;21.70;69.60;;;;;;5111255;27;20032;-58
2022/07/15 03:31:12;;;;;;;3.88;3.42;;;21.80;68.90;;;;;;5112498;27;20035;-59
2022/07/15 03:33:38;;;;;;;3.50;3.20;;;21.90;69.00;;;;;;5108720;28;20043;-58
2022/07/15 03:36:05;;;;;;;3.30;3.00;;;22.00;69.40;;;;;;5110261;28;20019;-59
2022/07/15 03:38:31;;;;;;;3.38;3.00;;;22.00;69.30;;;;;;5108223;27;20546;-59
2022/07/15 03:40:57;;;;;;;4.47;3.47;;;22.10;69.10;;;;;;5107202;28;20111;-59
2022/07/15 03:43:26;;;;;;;4.10;3.70;;;22.30;69.00;;;;;;5105969;28;20032;-59
2022/07/15 03:45:53;;;;;;;3.90;3.50;;;22.40;69.10;;;;;;5104023;27;20046;-59
2022/07/15 03:48:19;;;;;;;3.63;3.22;;;22.60;69.30;;;;;;5105550;28;20410;-59
2022/07/15 03:50:44;;;;;;;4.55;3.00;;;22.90;69.40;;;;;;5099052;28;20043;-59
2022/07/15 03:53:10;;;;;;;3.35;2.70;;;23.40;69.40;;;;;;5104924;28;20145;-59
2022/07/15 03:55:37;;;;;;;3.50;3.17;;;23.90;69.00;;;;;;5107792;28;20031;-59
2022/07/15 03:58:03;;;;;;;3.83;2.78;;;24.60;68.00;;;;;;5108725;28;20020;-60
2022/07/15 04:00:29;;;;;;;5.28;3.88;;;25.40;66.50;;;;;;5103386;27;20023;-59
2022/07/15 04:02:55;;;;;;;4.38;3.40;;;26.00;64.20;;;;;;5104639;28;20068;-58
2022/07/15 04:05:21;;;;;;;3.03;2.53;;;26.70;63.00;;;;;;5103357;28;20020;-59
2022/07/15 04:07:47;;;;;;;3.10;2.80;;;27.40;62.00;;;;;;5109013;28;20081;-59
2022/07/15 04:10:13;;;;;;;3.30;2.67;;;28.00;60.80;;;;;;5110178;28;20023;-59
2022/07/15 04:12:39;;;;;;;2.40;2.20;;;28.60;59.90;;;;;;5107915;27;20019;-59
2022/07/15 04:15:05;;;;;;;2.90;2.55;;;29.30;59.20;;;;;;5102903;28;20112;-59
2022/07/15 04:17:30;;;;;;;3.78;2.83;;;29.90;58.30;;;;;;5101044;28;20031;-59
2022/07/15 04:19:56;;;;;;;3.22;2.70;;;30.50;57.10;;;;;;5106999;28;20028;-60
2022/07/15 04:22:22;;;;;;;2.30;2.10;;;31.00;56.40;;;;;;5100375;28;20095;-59
2022/07/15 04:24:47;;;;;;;2.50;2.30;;;31.60;55.70;;;;;;5108865;28;20031;-60
2022/07/15 04:27:13;;;;;;;2.03;1.92;;;32.10;55.00;;;;;;5106548;28;20020;-60
2022/07/15 04:29:39;;;;;;;2.97;2.47;;;32.70;54.60;;;;;;5114602;27;20031;-59
2022/07/15 04:32:05;;;;;;;2.45;2.25;;;33.30;54.10;;;;;;5108673;28;20031;-59
2022/07/15 04:34:30;;;;;;;2.70;2.42;;;33.90;53.40;;;;;;5097752;28;20028;-59
2022/07/15 04:36:56;;;;;;;2.13;2.00;;;34.40;52.60;;;;;;5099357;28;20089;-59
2022/07/15 04:39:22;;;;;;;2.35;2.15;;;34.80;52.00;;;;;;5104730;28;20038;-58
2022/07/15 04:41:49;;;;;;;2.40;2.20;;;35.40;51.50;;;;;;5108211;28;20019;-58
2022/07/15 04:44:16;;;;;;;2.50;2.30;;;35.80;50.70;;;;;;5108505;28;20038;-60
2022/07/15 04:46:41;;;;;;;2.40;2.20;;;36.20;50.20;;;;;;5109990;28;20081;-59
2022/07/15 04:51:51;;;;;;;2.25;2.05;;;36.80;49.20;;;;;;5105774;28;20433;-59
2022/07/15 04:54:17;;;;;;;2.72;2.47;;;37.20;48.80;;;;;;5104661;28;20107;-58
2022/07/15 04:56:42;;;;;;;2.33;2.10;;;37.50;48.30;;;;;;5103405;28;20387;-59
2022/07/15 04:59:08;;;;;;;3.20;2.88;;;37.80;48.00;;;;;;5094366;28;20495;-58
2022/07/15 05:01:34;;;;;;;3.40;2.33;;;38.10;47.40;;;;;;5100924;27;20065;-59
2022/07/15 05:03:59;;;;;;;2.55;2.35;;;38.40;47.00;;;;;;5106703;28;20019;-59
2022/07/15 05:06:25;;;;;;;4.03;1.90;;;38.70;46.50;;;;;;5098950;28;20024;-59
2022/07/15 05:08:51;;;;;;;2.65;2.10;;;39.00;46.00;;;;;;5105146;28;20024;-59
2022/07/15 05:11:16;;;;;;;2.28;2.10;;;38.70;45.40;;;;;;5099510;28;20065;-59
2022/07/15 05:13:42;;;;;;;2.42;2.22;;;38.10;45.20;;;;;;5099510;28;20036;-59
2022/07/15 05:16:08;;;;;;;2.25;2.10;;;37.40;45.40;;;;;;5102415;28;20035;-59
2022/07/15 05:18:34;;;;;;;1.83;1.73;;;36.50;45.70;;;;;;5101667;28;20024;-59
2022/07/15 05:20:59;;;;;;;2.60;2.40;;;35.60;46.10;;;;;;5097306;28;20023;-59
2022/07/15 05:23:25;;;;;;;2.80;2.42;;;34.70;46.50;;;;;;5105854;28;20528;-59
2022/07/15 05:25:50;;;;;;;2.78;2.58;;;33.80;47.00;;;;;;5105774;28;20030;-57
2022/07/15 05:28:16;;;;;;;2.92;2.63;;;33.10;47.50;;;;;;5102721;28;20099;-57
2022/07/15 05:30:42;;;;;;;2.85;2.63;;;32.40;47.90;;;;;;5101392;28;20066;-57
2022/07/15 05:33:08;;;;;;;4.47;2.97;;;31.70;48.30;;;;;;5103707;28;20023;-59
2022/07/15 05:35:33;;;;;;;2.60;2.40;;;31.20;48.90;;;;;;5112338;27;20027;-56
2022/07/15 05:37:59;;;;;;;2.90;2.45;;;30.70;49.40;;;;;;5102665;27;20047;-57
2022/07/15 05:40:25;;;;;;;3.00;2.70;;;30.20;49.90;;;;;;5108689;28;20027;-57
2022/07/15 05:42:50;;;;;;;3.13;2.70;;;29.70;50.40;;;;;;5110111;28;20024;-57
2022/07/15 05:45:16;;;;;;;4.80;3.40;;;29.20;50.90;;;;;;5108205;28;20030;-57
2022/07/15 05:47:50;;;;;;;3.17;2.65;;;28.80;51.40;;;;;;5102879;28;20027;-57
2022/07/15 05:50:16;;;;;;;3.75;3.20;;;28.50;51.70;;;;;;5102311;28;20071;-56
2022/07/15 05:52:42;;;;;;;4.30;3.35;;;28.30;52.10;;;;;;5099535;28;20036;-57
2022/07/15 05:55:07;;;;;;;3.70;2.75;;;28.10;52.40;;;;;;5095192;28;20452;-57
2022/07/15 05:57:33;;;;;;;3.70;3.00;;;28.00;52.50;;;;;;5097159;28;20019;-56
2022/07/15 06:00:00;;;;;;;4.30;3.25;;;27.80;52.60;;;;;;5097128;28;20058;-56
2022/07/15 06:02:25;;;;;;;3.35;2.80;;;27.80;52.90;;;;;;5097134;28;20042;-57
2022/07/15 06:04:51;;;;;;;2.55;2.35;;;27.70;53.10;;;;;;5108151;28;20032;-57
2022/07/15 06:07:17;;;;;;;3.30;2.70;;;27.60;53.50;;;;;;5101157;28;20028;-56
2022/07/15 06:09:42;;;;;;;3.83;2.70;;;27.60;53.70;;;;;;5104900;28;20031;-57
2022/07/15 06:12:09;;;;;;;2.85;2.65;;;27.50;54.10;;;;;;5095562;28;20038;-56
2022/07/15 06:14:35;;;;;;;3.88;3.00;;;27.50;54.40;;;;;;5082060;28;20111;-56
2022/07/15 06:17:01;;;;;;;3.30;3.00;;;27.40;54.50;;;;;;5097749;28;20152;-57
2022/07/15 06:19:26;;;;;;;3.70;3.05;;;27.40;54.70;;;;;;5094344;28;20511;-57
2022/07/15 06:21:52;;;;;;;2.63;2.42;;;27.30;54.70;;;;;;5101319;28;20058;-57
2022/07/15 06:24:18;;;;;;;3.75;2.60;;;27.30;54.90;;;;;;5093157;28;20028;-57
2022/07/15 06:26:44;;;;;;;3.75;3.10;;;27.30;55.10;;;;;;5099777;28;20032;-57
2022/07/15 06:29:11;;;;;;;2.92;2.55;;;27.30;55.20;;;;;;5096104;28;20035;-57
2022/07/15 06:31:36;;;;;;;3.00;2.80;;;27.40;55.30;;;;;;5097588;28;20027;-57
2022/07/15 06:34:02;;;;;;;3.03;2.72;;;27.40;55.40;;;;;;5104256;28;20028;-56
2022/07/15 06:36:28;;;;;;;2.42;2.22;;;27.40;55.50;;;;;;5096007;28;20031;-57
2022/07/15 06:38:54;;;;;;;3.40;2.95;;;27.50;55.50;;;;;;5106160;28;20111;-57
2022/07/15 06:41:19;;;;;;;3.03;2.60;;;27.50;55.60;;;;;;5095388;28;20032;-57
2022/07/15 06:43:45;;;;;;;3.25;2.70;;;27.50;55.60;;;;;;5094323;28;20055;-57
2022/07/15 06:46:11;;;;;;;2.50;2.30;;;27.60;55.60;;;;;;5090079;27;20034;-56
2022/07/15 06:48:38;;;;;;;2.65;2.45;;;27.70;55.50;;;;;;5095409;27;20103;-56
2022/07/15 06:51:04;;;;;;;2.53;2.33;;;27.70;55.60;;;;;;5090288;27;20058;-57
2022/07/15 06:53:30;;;;;;;2.50;2.30;;;27.70;55.60;;;;;;5089899;27;20382;-57
2022/07/15 06:55:55;;;;;;;2.97;2.70;;;27.80;55.80;;;;;;5094229;27;20036;-57
2022/07/15 06:58:21;;;;;;;2.83;2.60;;;27.80;55.70;;;;;;5096841;28;20024;-57
2022/07/15 07:00:47;;;;;;;2.55;2.35;;;27.80;55.70;;;;;;5093726;28;20040;-57
2022/07/15 07:03:13;;;;;;;2.60;2.40;;;27.80;55.60;;;;;;5098762;27;20318;-57
2022/07/15 07:05:39;;;;;;;2.33;2.15;;;27.80;55.50;;;;;;5092201;27;20032;-60
2022/07/15 07:08:05;;;;;;;2.35;2.15;;;27.90;55.60;;;;;;5092096;28;20321;-57
2022/07/15 07:10:31;;;;;;;2.50;2.30;;;27.80;55.40;;;;;;5087525;28;20414;-57
2022/07/15 07:12:57;;;;;;;2.33;2.13;;;27.80;55.40;;;;;;5091284;27;20019;-56
2022/07/15 07:15:23;;;;;;;2.15;2.00;;;27.80;55.40;;;;;;5082479;27;20402;-54
2022/07/15 07:17:52;;;;;;;2.85;2.00;;;27.80;55.60;;;;;;5087767;27;20032;-58
2022/07/15 07:20:18;;;;;;;2.00;1.90;;;27.90;55.70;;;;;;5088729;27;20756;-56
2022/07/15 07:22:44;;;;;;;1.90;1.80;;;27.80;55.40;;;;;;5082677;27;20115;-59
2022/07/15 07:25:09;;;;;;;2.13;2.03;;;27.90;55.50;;;;;;5082901;27;20035;-58
2022/07/15 07:27:35;;;;;;;2.30;2.20;;;27.90;55.50;;;;;;5088657;27;20027;-59
2022/07/15 07:30:02;;;;;;;2.15;2.03;;;28.00;55.40;;;;;;5086485;27;20046;-58
2022/07/15 07:32:28;;;;;;;2.40;2.20;;;28.00;55.50;;;;;;5081141;27;20036;-57
2022/07/15 07:34:54;;;;;;;2.63;2.42;;;28.00;55.40;;;;;;5070166;27;21079;-56
2022/07/15 07:37:19;;;;;;;2.10;2.00;;;28.10;55.60;;;;;;5079535;27;20027;-56
2022/07/15 07:39:45;;;;;;;2.67;2.30;;;28.10;55.60;;;;;;5077559;27;20027;-57
2022/07/15 07:42:13;;;;;;;2.33;2.13;;;28.10;55.50;;;;;;5083800;27;20081;-56
2022/07/15 07:44:39;;;;;;;2.53;2.20;;;28.20;55.60;;;;;;5086328;27;20036;-56
2022/07/15 07:47:04;;;;;;;3.67;2.97;;;28.20;55.50;;;;;;5081416;27;20024;-57
2022/07/15 07:49:30;;;;;;;2.53;2.30;;;28.30;55.30;;;;;;5077246;27;20055;-58
2022/07/15 07:51:56;;;;;;;2.25;2.05;;;28.30;55.00;;;;;;5075001;27;20023;-57
2022/07/15 07:54:21;;;;;;;2.45;2.25;;;28.40;55.20;;;;;;5080258;27;20032;-56
2022/07/15 07:56:47;;;;;;;2.42;2.22;;;28.40;55.10;;;;;;5080464;27;20039;-57
2022/07/15 07:59:14;;;;;;;1.95;1.85;;;28.40;55.00;;;;;;5081850;27;20073;-56
2022/07/15 08:01:40;;;;;;;2.53;2.33;;;28.40;55.10;;;;;;5088137;27;20032;-57
2022/07/15 08:04:07;;;;;;;2.28;2.08;;;28.40;55.30;;;;;;5078994;28;21065;-56
2022/07/15 08:06:34;;;;;;;1.90;1.80;;;28.40;55.50;;;;;;5087274;27;22061;-57
2022/07/15 08:09:00;;;;;;;3.50;2.35;;;28.30;55.60;;;;;;5083219;27;20492;-58
2022/07/15 08:11:26;;;;;;;3.40;2.42;;;28.30;55.60;;;;;;5086584;27;20526;-57
2022/07/15 08:13:53;;;;;;;2.72;2.53;;;28.30;55.70;;;;;;5067360;28;20032;-57
2022/07/15 08:16:21;;;;;;;2.40;2.20;;;28.30;55.60;;;;;;5086723;27;20039;-57
2022/07/15 08:18:48;;;;;;;2.35;2.22;;;28.30;55.60;;;;;;5084440;27;20046;-57
2022/07/15 08:21:15;;;;;;;3.60;2.25;;;28.40;55.80;;;;;;5087864;27;20517;-57
2022/07/15 08:23:41;;;;;;;2.47;2.28;;;28.30;55.80;;;;;;5083902;27;20029;-56
2022/07/15 08:26:10;;;;;;;2.70;2.50;;;28.40;55.80;;;;;;5071033;27;20086;-58
2022/07/15 08:28:36;;;;;;;2.20;2.08;;;28.40;55.90;;;;;;5084230;27;20517;-57
2022/07/15 08:31:02;;;;;;;2.20;2.00;;;28.40;55.90;;;;;;5068338;27;20542;-57
2022/07/15 08:33:28;;;;;;;2.80;2.53;;;28.50;55.80;;;;;;5071239;27;20828;-57
2022/07/15 08:35:56;;;;;;;3.75;2.47;;;28.50;55.90;;;;;;5088048;27;20150;-57
2022/07/15 08:38:22;;;;;;;2.90;2.30;;;28.60;55.80;;;;;;5091479;27;20082;-57
2022/07/15 08:40:48;;;;;;;2.30;2.10;;;28.60;55.90;;;;;;5071602;27;20040;-57
2022/07/15 08:43:14;;;;;;;2.88;2.40;;;28.60;55.70;;;;;;5089300;27;20115;-56
2022/07/15 08:45:44;;;;;;;2.92;2.47;;;28.70;55.70;;;;;;5083820;27;20117;-58
2022/07/15 08:48:10;;;;;;;2.88;2.30;;;28.70;55.50;;;;;;5076590;28;20178;-58
2022/07/15 08:50:37;;;;;;;3.72;2.47;;;28.70;55.40;;;;;;5075421;27;20052;-58
2022/07/15 08:53:03;;;;;;;2.50;2.30;;;28.60;55.30;;;;;;5079843;27;20024;-57
2022/07/15 08:55:29;;;;;;;2.95;2.58;;;28.60;55.30;;;;;;5079004;27;20036;-57
2022/07/15 08:57:55;;;;;;;2.38;2.17;;;28.60;55.40;;;;;;5078773;27;20039;-58
2022/07/15 09:00:28;;;;;;;2.13;2.03;;;28.50;55.20;;;;;;5076357;27;20024;-57
2022/07/15 09:02:58;;;;;;;2.40;2.20;;;28.50;55.20;;;;;;5079434;27;20067;-58
2022/07/15 09:05:34;;;;;;;2.10;2.00;;;28.30;55.10;;;;;;5088818;27;20107;-57
2022/07/15 09:08:05;;;;;;;2.50;2.30;;;28.30;55.20;;;;;;5083883;27;20479;-57
2022/07/15 09:10:50;;;;;;;2.60;2.22;;;28.20;55.50;;;;;;5081366;27;20455;-57
2022/07/15 09:13:26;;;;;;;1.95;1.85;;;28.20;55.50;;;;;;5080662;27;20036;-58
2022/07/15 09:15:54;;;;;;;2.55;2.35;;;28.10;55.40;;;;;;5081830;27;20038;-57
2022/07/15 09:18:23;;;;;;;2.15;2.00;;;28.10;55.40;;;;;;5086932;27;21129;-58
2022/07/15 09:20:50;;;;;;;2.73;2.53;;;28.10;55.40;;;;;;5085502;27;20081;-57
2022/07/15 09:23:23;;;;;;;2.10;2.00;;;28.00;55.30;;;;;;5083506;27;25323;-58
2022/07/15 09:25:50;;;;;;;2.67;2.33;;;28.10;55.30;;;;;;5077447;27;20028;-57
2022/07/15 09:28:16;;;;;;;2.38;2.17;;;28.00;55.40;;;;;;5077512;28;20403;-58
2022/07/15 09:36:11;;;;;;;2.30;2.10;;;28.00;55.20;;;;;;5075971;27;22109;-57
2022/07/15 09:38:59;;;;;;;2.08;1.98;;;28.00;55.30;;;;;;5075668;27;20035;-57
2022/07/15 09:41:28;;;;;;;2.50;2.30;;;28.00;55.20;;;;;;5080916;28;20459;-57
2022/07/15 09:44:14;;;;;;;2.65;2.25;;;28.00;55.20;;;;;;5079167;28;20027;-56
2022/07/15 09:46:49;;;;;;;1.90;1.80;;;28.10;55.10;;;;;;5082088;28;20479;-58
2022/07/15 09:49:32;;;;;;;1.98;1.85;;;28.10;55.00;;;;;;5079189;28;20539;-57
2022/07/15 09:52:16;;;;;;;2.17;1.98;;;28.10;55.00;;;;;;5083997;28;20032;-58
2022/07/15 09:54:44;;;;;;;4.75;2.83;;;28.10;55.10;;;;;;5047853;28;21184;-58
2022/07/15 09:57:16;;;;;;;2.10;1.77;;;28.10;54.80;;;;;;5066890;28;20067;-56
2022/07/15 09:59:43;;;;;;;2.83;2.63;;;28.20;54.80;;;;;;5068135;28;20081;-58
2022/07/15 10:02:10;;;;;;;2.65;2.30;;;28.20;54.80;;;;;;5084797;28;20020;-58
2022/07/15 10:04:36;;;;;;;2.13;1.92;;;28.30;54.60;;;;;;5084213;28;20071;-58
2022/07/15 10:07:04;;;;;;;1.98;1.85;;;28.20;54.50;;;;;;5073172;28;20085;-57
2022/07/15 10:09:32;;;;;;;2.22;2.03;;;28.30;54.90;;;;;;5083814;28;20032;-58
2022/07/15 10:12:29;;;;;;;2.65;2.13;;;28.20;54.70;;;;;;5077117;28;20414;-58
2022/07/15 10:15:00;;;;;;;1.77;1.67;;;28.20;54.50;;;;;;5069008;28;20051;-57
2022/07/15 10:17:26;;;;;;;2.88;2.22;;;28.20;54.70;;;;;;5090692;28;20066;-58
2022/07/15 10:20:16;;;;;;;2.20;1.98;;;28.20;54.70;;;;;;5090309;28;20036;-57
2022/07/15 10:22:48;;;;;;;2.08;1.88;;;28.20;54.60;;;;;;5087906;27;20027;-58
2022/07/15 10:26:04;;;;;;;2.17;1.98;;;28.20;54.60;;;;;;5090903;27;20024;-58
2022/07/15 10:28:49;;;;;;;2.58;2.20;;;28.20;54.40;;;;;;5083706;28;20104;-58
2022/07/15 10:31:22;;;;;;;2.30;2.10;;;28.10;54.30;;;;;;5088458;27;20114;-57
2022/07/15 10:34:03;;;;;;;2.95;2.00;;;28.10;54.50;;;;;;5082101;28;20115;-58
2022/07/15 10:36:47;;;;;;;1.92;1.80;;;28.20;54.40;;;;;;5078545;27;20096;-58
2022/07/15 10:40:08;;;;;;;2.40;2.20;;;28.20;54.40;;;;;;5083984;27;20032;-58
2022/07/15 10:42:57;;;;;;;2.35;2.15;;;28.20;54.50;;;;;;5051405;27;20101;-58
2022/07/15 10:45:22;;;;;;;2.50;2.30;;;28.10;54.50;;;;;;5083093;27;20031;-58
2022/07/15 10:48:25;;;;;;;2.88;2.10;;;28.10;54.60;;;;;;5090350;27;20058;-56
2022/07/15 10:50:50;;;;;;;2.17;1.98;;;28.10;54.50;;;;;;5093465;27;20046;-58
2022/07/15 10:53:20;;;;;;;1.88;1.75;;;28.10;54.60;;;;;;5087199;27;20027;-58
2022/07/15 10:55:46;;;;;;;2.33;2.13;;;28.10;54.50;;;;;;5081062;27;20390;-57
2022/07/15 10:58:12;;;;;;;1.73;1.63;;;28.10;54.90;;;;;;5088592;27;20033;-58
2022/07/15 11:00:38;;;;;;;2.15;1.95;;;28.20;54.70;;;;;;5061915;27;20024;-58
2022/07/15 11:03:13;;;;;;;1.98;1.77;;;28.20;54.40;;;;;;5081400;27;20032;-58
2022/07/15 11:05:46;;;;;;;1.85;1.75;;;28.30;55.20;;;;;;5085937;27;20479;-58
2022/07/15 11:08:33;;;;;;;2.45;2.15;;;28.30;54.50;;;;;;5077696;27;20048;-58
2022/07/15 11:11:14;;;;;;;2.00;1.90;;;28.40;54.50;;;;;;5079432;27;20032;-57
2022/07/15 11:13:42;;;;;;;1.65;1.55;;;28.40;54.40;;;;;;5076966;27;20539;-57
2022/07/15 11:16:16;;;;;;;2.03;1.90;;;28.40;54.50;;;;;;5080517;27;20032;-58
2022/07/15 11:18:50;;;;;;;1.70;1.60;;;28.50;54.50;;;;;;5083398;27;20046;-57
2022/07/15 11:21:17;;;;;;;2.15;1.98;;;28.60;54.50;;;;;;5087069;27;20556;-57
2022/07/15 11:23:47;;;;;;;1.95;1.80;;;28.70;54.60;;;;;;5090401;27;20034;-56
2022/07/15 11:26:13;;;;;;;1.90;1.80;;;28.70;54.50;;;;;;5085720;27;20029;-58
2022/07/15 11:28:59;;;;;;;1.90;1.80;;;28.80;54.30;;;;;;5088607;27;20057;-57
2022/07/15 11:31:26;;;;;;;2.15;2.03;;;28.90;54.20;;;;;;5082394;27;20502;-58
2022/07/15 11:33:55;;;;;;;2.28;2.08;;;28.90;54.00;;;;;;5086000;27;20484;-57
2022/07/15 11:36:22;;;;;;;2.10;1.90;;;28.90;53.60;;;;;;5084445;27;20119;-57
2022/07/15 11:38:49;;;;;;;2.72;2.25;;;29.00;53.90;;;;;;5086432;27;20035;-57
2022/07/15 11:46:52;;;;;;;1.98;1.88;;;29.00;53.40;;;;;;5073637;27;20098;-57
2022/07/15 11:49:35;;;;;;;2.05;1.92;;;29.00;53.30;;;;;;5088225;27;20044;-57
2022/07/15 11:52:03;;;;;;;1.80;1.70;;;29.00;53.20;;;;;;5084257;27;20049;-57
2022/07/15 11:54:29;;;;;;;1.92;1.83;;;29.00;53.00;;;;;;5079235;27;20024;-56
2022/07/15 11:57:05;;;;;;;2.67;1.70;;;29.10;53.00;;;;;;5079330;27;20031;-57
2022/07/15 11:59:31;;;;;;;1.70;1.60;;;29.10;52.90;;;;;;5080871;27;20024;-57
2022/07/15 12:02:12;;;;;;;2.58;2.10;;;29.10;52.70;;;;;;5076492;27;20069;-57
2022/07/15 12:04:39;;;;;;;1.88;1.75;;;29.10;52.50;;;;;;5074049;27;20036;-58
2022/07/15 12:07:05;;;;;;;2.10;1.77;;;29.00;52.40;;;;;;5076585;27;20390;-57
2022/07/15 12:09:45;;;;;;;2.30;2.10;;;28.90;52.50;;;;;;5079219;27;20038;-57
2022/07/15 12:12:11;;;;;;;2.50;2.00;;;28.90;52.40;;;;;;5073472;27;20497;-57
2022/07/15 12:14:37;;;;;;;2.17;2.00;;;28.80;52.50;;;;;;5079703;27;22853;-56
2022/07/15 12:17:04;;;;;;;1.60;1.48;;;28.80;52.60;;;;;;5072523;27;20074;-58
2022/07/15 12:19:32;;;;;;;1.88;1.73;;;28.80;52.70;;;;;;5080106;27;20109;-57
2022/07/15 12:22:03;;;;;;;2.45;2.20;;;28.70;52.60;;;;;;5073304;27;20028;-58
2022/07/15 12:24:40;;;;;;;2.80;2.13;;;28.70;52.70;;;;;;5075397;27;20491;-59
2022/07/15 12:27:07;;;;;;;3.22;1.92;;;28.70;52.70;;;;;;5084530;27;20062;-57
2022/07/15 12:29:34;;;;;;;2.90;2.13;;;28.70;52.70;;;;;;5078230;27;20033;-57
2022/07/15 12:32:00;;;;;;;2.00;1.80;;;28.70;52.70;;;;;;5064778;27;20186;-58
2022/07/15 12:34:51;;;;;;;1.90;1.70;;;28.60;52.50;;;;;;5068670;27;20619;-58
2022/07/15 12:37:21;;;;;;;2.25;2.05;;;28.60;52.60;;;;;;5078455;27;20058;-59
2022/07/15 12:40:06;;;;;;;2.20;2.00;;;28.60;52.70;;;;;;5077742;27;20098;-58
2022/07/15 12:42:39;;;;;;;1.90;1.80;;;28.60;52.80;;;;;;5079508;27;20020;-58
2022/07/15 12:45:26;;;;;;;2.25;1.80;;;28.70;52.70;;;;;;5081797;27;20035;-58
2022/07/15 12:48:04;;;;;;;2.20;2.00;;;28.70;52.60;;;;;;5071909;28;20032;-57
2022/07/15 12:50:52;;;;;;;1.60;1.50;;;28.60;52.70;;;;;;5077080;27;20055;-57
2022/07/15 12:53:19;;;;;;;3.08;1.80;;;28.60;52.60;;;;;;5061293;28;23429;-58
2022/07/15 12:55:48;;;;;;;2.28;2.03;;;28.60;52.60;;;;;;5070636;27;20060;-57
2022/07/15 12:58:16;;;;;;;2.00;1.80;;;28.60;52.50;;;;;;5075794;27;20415;-57
2022/07/15 13:00:44;;;;;;;2.65;1.80;;;28.60;52.70;;;;;;5077118;28;20047;-57
2022/07/15 13:03:36;;;;;;;2.13;1.65;;;28.60;53.40;;;;;;5079155;27;20028;-59
2022/07/15 13:06:02;;;;;;;1.50;1.40;;;28.40;55.00;;;;;;5073872;27;20483;-58
2022/07/15 13:08:35;;;;;;;2.28;1.95;;;28.20;55.40;;;;;;5070373;27;20032;-58
2022/07/15 13:11:03;;;;;;;1.63;1.52;;;28.00;56.50;;;;;;5076192;27;20119;-58